createdAt,value
2023-02-11T00:02:41.528Z,32.00
2023-02-11T00:05:41.480Z,33.50
2023-02-11T00:06:41.496Z,34.79
2023-02-11T00:07:41.465Z,36.09
2023-02-11T00:08:41.453Z,42.00
2023-02-11T00:09:41.444Z,39.20
2023-02-11T00:13:41.405Z,40.09
2023-02-11T00:14:41.391Z,36.70
2023-02-11T00:15:41.378Z,39.79
2023-02-11T00:29:41.233Z,35.70
2023-02-11T00:31:41.372Z,33.20
2023-02-11T00:32:41.198Z,32.70
2023-02-11T00:38:41.168Z,32.40
2023-02-11T01:39:40.529Z,24.29
2023-02-11T01:43:40.483Z,25.29
2023-02-11T01:53:40.384Z,27.60
2023-02-11T01:56:40.356Z,26.20
2023-02-11T01:57:40.347Z,22.50
2023-02-11T01:58:40.355Z,23.89
2023-02-11T02:00:40.322Z,22.89
2023-02-11T02:03:40.332Z,23.00
2023-02-11T02:07:40.244Z,23.39
2023-02-11T02:08:40.238Z,25.29
2023-02-11T03:49:39.248Z,18.79
2023-02-11T03:52:39.290Z,20.50
2023-02-11T04:19:38.949Z,18.50
2023-02-11T04:25:38.879Z,17.89
2023-02-11T04:51:38.655Z,18.39
2023-02-11T05:17:38.370Z,20.70
2023-02-11T05:18:38.362Z,19.20
2023-02-11T05:19:38.351Z,19.39
2023-02-11T05:20:38.341Z,21.50
2023-02-11T05:23:38.310Z,21.20
2023-02-11T05:24:38.308Z,18.70
2023-02-11T05:26:38.303Z,19.10
2023-02-11T05:30:38.286Z,20.60
2023-02-11T05:32:38.225Z,19.60
2023-02-11T05:35:38.197Z,20.60
2023-02-11T05:36:38.193Z,19.20
2023-02-11T05:40:38.149Z,18.29
2023-02-11T05:43:38.116Z,20.29
2023-02-11T05:45:38.094Z,21.00
2023-02-11T05:46:38.159Z,18.60
2023-02-11T05:47:38.084Z,18.50
2023-02-11T05:48:38.068Z,20.20
2023-02-11T05:49:38.055Z,19.39
2023-02-11T05:50:38.067Z,20.10
2023-02-11T05:58:37.990Z,19.89
2023-02-11T05:59:37.959Z,21.00
2023-02-11T06:02:37.960Z,20.39
2023-02-11T06:07:37.888Z,21.00
2023-02-11T06:09:37.859Z,20.20
2023-02-11T06:10:37.853Z,18.89
2023-02-11T06:47:37.508Z,17.00
2023-02-11T07:55:36.794Z,17.79
2023-02-11T07:56:36.796Z,16.79
2023-02-11T07:57:36.774Z,17.70
2023-02-11T07:58:36.771Z,17.29
2023-02-11T07:59:36.751Z,15.60
2023-02-11T08:00:36.772Z,17.29
2023-02-11T08:01:36.743Z,16.79
2023-02-11T08:02:36.720Z,17.60
2023-02-11T08:03:36.715Z,20.89
2023-02-11T08:04:36.698Z,30.29
2023-02-11T08:05:36.691Z,32.00
2023-02-11T08:06:36.705Z,36.40
2023-02-11T08:07:36.666Z,23.29
2023-02-11T08:08:36.662Z,20.39
2023-02-11T08:09:36.649Z,21.89
2023-02-11T08:10:36.634Z,24.39
2023-02-11T08:11:36.626Z,24.79
2023-02-11T08:12:36.615Z,28.39
2023-02-11T08:13:36.604Z,23.29
2023-02-11T08:14:36.596Z,22.70
2023-02-11T08:15:36.584Z,24.79
2023-02-11T08:16:36.674Z,23.39
2023-02-11T08:17:36.560Z,22.20
2023-02-11T08:18:36.551Z,25.20
2023-02-11T08:19:36.541Z,28.20
2023-02-11T08:20:36.537Z,25.50
2023-02-11T08:21:36.518Z,24.50
2023-02-11T08:22:36.536Z,22.39
2023-02-11T08:23:36.500Z,20.10
2023-02-11T08:24:36.484Z,19.10
2023-02-11T08:25:36.476Z,20.20
2023-02-11T08:26:36.469Z,18.60
2023-02-11T08:27:36.456Z,17.79
2023-02-11T08:28:36.588Z,21.89
2023-02-11T08:29:36.431Z,19.39
2023-02-11T08:30:36.419Z,20.10
2023-02-11T08:31:36.531Z,21.10
2023-02-11T08:32:36.404Z,21.50
2023-02-11T08:33:36.389Z,21.70
2023-02-11T08:34:36.381Z,23.79
2023-02-11T08:35:36.375Z,22.60
2023-02-11T08:36:36.367Z,20.39
2023-02-11T08:37:36.347Z,22.29
2023-02-11T08:38:36.362Z,25.29
2023-02-11T08:39:36.328Z,23.20
2023-02-11T08:40:36.521Z,25.79
2023-02-11T08:41:36.310Z,23.20
2023-02-11T08:42:36.298Z,22.70
2023-02-11T08:43:36.286Z,23.70
2023-02-11T08:44:36.274Z,23.89
2023-02-11T08:45:36.296Z,23.60
2023-02-11T08:46:36.267Z,20.60
2023-02-11T08:47:36.248Z,23.00
2023-02-11T08:48:36.229Z,23.50
2023-02-11T08:49:36.223Z,23.70
2023-02-11T08:50:36.209Z,22.10
2023-02-11T08:51:36.202Z,23.89
2023-02-11T08:52:36.195Z,23.79
2023-02-11T08:53:36.185Z,24.70
2023-02-11T08:54:36.198Z,23.79
2023-02-11T08:55:36.178Z,28.29
2023-02-11T08:56:36.149Z,24.20
2023-02-11T08:57:36.139Z,22.20
2023-02-11T08:58:36.128Z,23.79
2023-02-11T08:59:36.117Z,22.79
2023-02-11T09:00:36.105Z,21.79
2023-02-11T09:01:36.167Z,21.50
2023-02-11T09:02:36.215Z,21.60
2023-02-11T09:03:36.078Z,23.00
2023-02-11T09:04:36.072Z,21.89
2023-02-11T09:05:36.049Z,20.79
2023-02-11T09:06:36.043Z,22.10
2023-02-11T09:07:36.035Z,21.20
2023-02-11T09:08:36.025Z,22.00
2023-02-11T09:09:36.012Z,21.20
2023-02-11T09:10:36.031Z,23.20
2023-02-11T09:11:36.015Z,24.10
2023-02-11T09:12:35.977Z,20.89
2023-02-11T09:13:35.967Z,21.60
2023-02-11T09:14:35.957Z,22.10
2023-02-11T09:15:35.943Z,21.70
2023-02-11T09:16:36.025Z,22.70
2023-02-11T09:17:35.922Z,22.29
2023-02-11T09:18:35.920Z,23.00
2023-02-11T09:19:35.909Z,23.00
2023-02-11T09:20:35.893Z,23.29
2023-02-11T09:21:35.910Z,22.70
2023-02-11T09:22:35.874Z,27.39
2023-02-11T09:23:35.872Z,27.70
2023-02-11T09:24:35.850Z,25.89
2023-02-11T09:25:35.841Z,26.39
2023-02-11T09:26:35.853Z,27.70
2023-02-11T09:27:35.819Z,26.79
2023-02-11T09:28:35.881Z,26.20
2023-02-11T09:29:35.808Z,26.50
2023-02-11T09:30:35.857Z,26.20
2023-02-11T09:31:36.015Z,28.10
2023-02-11T09:32:35.776Z,29.60
2023-02-11T09:33:35.762Z,28.89
2023-02-11T09:34:35.754Z,25.60
2023-02-11T09:35:35.740Z,25.50
2023-02-11T09:36:35.830Z,25.70
2023-02-11T09:37:37.346Z,26.39
2023-02-11T09:38:35.735Z,25.00
2023-02-11T09:39:35.700Z,25.10
2023-02-11T09:40:35.688Z,26.70
2023-02-11T09:41:35.696Z,27.79
2023-02-11T09:42:35.711Z,27.10
2023-02-11T09:43:35.655Z,24.79
2023-02-11T09:44:35.656Z,28.39
2023-02-11T09:45:35.640Z,26.10
2023-02-11T09:46:35.705Z,29.70
2023-02-11T09:47:35.872Z,32.20
2023-02-11T09:48:35.601Z,31.20
2023-02-11T09:49:35.599Z,35.20
2023-02-11T09:50:35.580Z,30.50
2023-02-11T09:51:35.575Z,27.10
2023-02-11T09:52:35.560Z,31.00
2023-02-11T09:53:35.551Z,28.20
2023-02-11T09:54:35.539Z,29.29
2023-02-11T09:55:35.533Z,26.20
2023-02-11T09:56:35.522Z,24.89
2023-02-11T09:57:35.518Z,24.60
2023-02-11T09:58:35.536Z,26.00
2023-02-11T09:59:35.492Z,24.50
2023-02-11T10:00:35.482Z,25.50
2023-02-11T10:01:35.545Z,26.70
2023-02-11T10:02:35.463Z,25.60
2023-02-11T10:03:35.456Z,26.79
2023-02-11T10:04:35.434Z,24.29
2023-02-11T10:05:35.431Z,23.60
2023-02-11T10:06:35.422Z,24.29
2023-02-11T10:07:35.412Z,27.50
2023-02-11T10:08:35.402Z,25.50
2023-02-11T10:09:35.390Z,27.00
2023-02-11T10:10:35.378Z,24.50
2023-02-11T10:11:35.377Z,25.60
2023-02-11T10:12:35.357Z,25.20
2023-02-11T10:13:35.346Z,26.00
2023-02-11T10:14:35.364Z,22.50
2023-02-11T10:15:35.393Z,21.89
2023-02-11T10:16:35.313Z,25.10
2023-02-11T10:17:35.303Z,22.10
2023-02-11T10:18:35.298Z,21.89
2023-02-11T10:19:35.286Z,20.89
2023-02-11T10:20:35.277Z,21.20
2023-02-11T10:21:35.265Z,23.50
2023-02-11T10:22:35.251Z,22.10
2023-02-11T10:23:35.246Z,22.60
2023-02-11T10:24:35.238Z,21.79
2023-02-11T10:25:35.227Z,21.60
2023-02-11T10:26:35.216Z,23.39
2023-02-11T10:27:35.203Z,21.89
2023-02-11T10:28:35.279Z,20.29
2023-02-11T10:29:35.188Z,20.29
2023-02-11T10:30:35.283Z,22.89
2023-02-11T10:31:35.263Z,21.89
2023-02-11T10:32:35.155Z,23.00
2023-02-11T10:33:35.142Z,21.10
2023-02-11T10:34:35.133Z,22.29
2023-02-11T10:35:35.121Z,21.29
2023-02-11T10:36:35.127Z,22.70
2023-02-11T10:37:35.104Z,21.89
2023-02-11T10:38:35.091Z,22.70
2023-02-11T10:39:35.082Z,24.10
2023-02-11T10:40:35.067Z,21.50
2023-02-11T10:41:35.063Z,22.39
2023-02-11T10:42:35.050Z,22.50
2023-02-11T10:43:35.035Z,22.50
2023-02-11T10:44:35.028Z,22.70
2023-02-11T10:45:35.025Z,23.00
2023-02-11T10:46:35.108Z,22.50
2023-02-11T10:47:34.999Z,22.89
2023-02-11T10:48:34.984Z,23.20
2023-02-11T10:49:34.976Z,21.89
2023-02-11T10:50:34.977Z,22.10
2023-02-11T10:51:34.980Z,21.79
2023-02-11T10:52:34.946Z,20.70
2023-02-11T10:53:34.939Z,21.60
2023-02-11T10:54:34.924Z,22.60
2023-02-11T10:55:34.913Z,21.39
2023-02-11T10:56:34.905Z,22.20
2023-02-11T10:57:34.898Z,23.10
2023-02-11T10:58:34.888Z,20.70
2023-02-11T10:59:34.880Z,21.39
2023-02-11T11:00:34.864Z,19.79
2023-02-11T11:01:34.902Z,21.29
2023-02-11T11:02:34.864Z,22.89
2023-02-11T11:03:34.835Z,21.79
2023-02-11T11:04:34.926Z,23.10
2023-02-11T11:05:34.814Z,19.00
2023-02-11T11:06:47.668Z,21.00
2023-02-11T11:07:34.787Z,20.79
2023-02-11T11:08:34.785Z,19.70
2023-02-11T11:09:34.782Z,19.39
2023-02-11T11:10:34.762Z,20.20
2023-02-11T11:11:34.751Z,19.60
2023-02-11T11:12:39.621Z,20.50
2023-02-11T11:13:34.737Z,20.60
2023-02-11T11:14:37.862Z,19.20
2023-02-11T11:15:34.714Z,22.70
2023-02-11T11:23:41.670Z,18.60
2023-02-11T11:25:14.519Z,17.10
2023-02-11T11:25:43.089Z,15.19
2023-02-11T11:26:59.586Z,16.70
2023-02-11T15:46:27.090Z,17.10
2023-02-11T15:47:28.526Z,27.60
2023-02-11T15:48:28.520Z,26.00
2023-02-11T15:49:28.522Z,27.50
2023-02-11T15:50:28.515Z,28.79
2023-02-11T15:51:28.493Z,30.00
2023-02-11T15:52:28.483Z,28.70
2023-02-11T15:53:28.480Z,29.20
2023-02-11T15:54:28.459Z,28.20
2023-02-11T15:55:28.451Z,27.50
2023-02-11T15:56:28.534Z,28.50
2023-02-11T15:57:28.429Z,28.50
2023-02-11T15:58:28.537Z,29.20
2023-02-11T15:59:28.412Z,29.89
2023-02-11T16:00:28.402Z,31.29
2023-02-11T16:01:28.430Z,30.29
2023-02-11T16:02:28.409Z,29.60
2023-02-11T16:03:28.371Z,29.79
2023-02-11T16:04:28.430Z,28.29
2023-02-11T16:05:28.348Z,28.89
2023-02-11T16:06:28.337Z,29.79
2023-02-11T16:07:28.325Z,29.89
2023-02-11T16:08:28.335Z,29.20
2023-02-11T16:09:28.309Z,30.00
2023-02-11T16:10:28.313Z,30.79
2023-02-11T16:11:28.288Z,31.39
2023-02-11T16:12:28.275Z,29.10
2023-02-11T16:13:28.445Z,31.29
2023-02-11T16:14:28.256Z,28.79
2023-02-11T16:15:28.250Z,31.00
2023-02-11T16:16:28.310Z,32.59
2023-02-11T16:17:28.250Z,30.10
2023-02-11T16:18:37.306Z,31.10
2023-02-11T16:19:29.224Z,30.50
2023-02-11T16:20:28.191Z,28.79
2023-02-11T16:21:28.180Z,30.89
2023-02-11T16:22:28.174Z,29.89
2023-02-11T16:23:28.164Z,31.00
2023-02-11T16:24:28.261Z,30.00
2023-02-11T16:25:28.158Z,31.29
2023-02-11T16:26:28.143Z,31.60
2023-02-11T16:27:28.122Z,31.39
2023-02-11T16:28:28.210Z,30.89
2023-02-11T16:29:28.101Z,32.40
2023-02-11T16:30:28.143Z,30.89
2023-02-11T16:31:28.132Z,30.00
2023-02-11T16:32:28.076Z,30.29
2023-02-11T16:33:28.059Z,31.20
2023-02-11T16:34:28.069Z,71.40
2023-02-11T16:35:28.040Z,71.50
2023-02-11T16:36:28.077Z,52.00
2023-02-11T16:37:28.023Z,66.40
2023-02-11T16:38:28.006Z,52.59
2023-02-11T16:39:27.994Z,41.50
2023-02-11T16:40:27.982Z,46.00
2023-02-11T16:41:27.975Z,41.29
2023-02-11T16:42:27.973Z,37.79
2023-02-11T16:43:27.956Z,42.29
2023-02-11T16:44:27.945Z,44.20
2023-02-11T16:45:27.934Z,46.59
2023-02-11T16:46:27.979Z,58.79
2023-02-11T16:47:27.932Z,47.59
2023-02-11T16:48:27.900Z,48.09
2023-02-11T16:49:27.891Z,45.09
2023-02-11T16:50:27.906Z,53.79
2023-02-11T16:51:27.867Z,56.70
2023-02-11T16:52:27.860Z,60.09
2023-02-11T16:53:27.855Z,64.30
2023-02-11T16:54:27.840Z,75.40
2023-02-11T16:55:27.829Z,64.40
2023-02-11T16:56:27.824Z,73.30
2023-02-11T16:57:30.168Z,62.90
2023-02-11T16:58:27.805Z,103.40
2023-02-11T16:59:27.789Z,98.90
2023-02-11T17:00:27.867Z,86.90
2023-02-11T17:01:27.798Z,76.30
2023-02-11T17:02:27.756Z,60.29
2023-02-11T17:03:29.961Z,76.50
2023-02-11T17:04:27.775Z,98.80
2023-02-11T17:05:27.727Z,88.09
2023-02-11T17:06:27.734Z,88.09
2023-02-11T17:07:27.698Z,103.09
2023-02-11T17:08:27.688Z,57.59
2023-02-11T17:09:30.368Z,45.09
2023-02-11T17:10:27.693Z,42.70
2023-02-11T17:11:27.659Z,42.50
2023-02-11T17:12:27.696Z,37.00
2023-02-11T17:13:27.634Z,36.09
2023-02-11T17:14:27.625Z,37.79
2023-02-11T17:15:27.620Z,35.50
2023-02-11T17:16:27.704Z,37.09
2023-02-11T17:17:27.592Z,35.40
2023-02-11T17:18:27.579Z,38.79
2023-02-11T17:19:27.574Z,40.40
2023-02-11T17:20:27.562Z,38.50
2023-02-11T17:21:29.923Z,39.29
2023-02-11T17:22:27.594Z,38.90
2023-02-11T17:23:27.592Z,37.00
2023-02-11T17:24:27.545Z,34.59
2023-02-11T17:25:27.538Z,35.40
2023-02-11T17:26:27.499Z,33.50
2023-02-11T17:27:27.494Z,35.59
2023-02-11T17:28:27.528Z,38.79
2023-02-11T17:29:27.468Z,36.09
2023-02-11T17:30:27.457Z,38.90
2023-02-11T17:31:27.566Z,32.70
2023-02-11T17:32:27.434Z,39.90
2023-02-11T17:33:27.425Z,37.90
2023-02-11T17:34:27.412Z,38.09
2023-02-11T17:35:27.406Z,36.00
2023-02-11T17:36:27.394Z,36.50
2023-02-11T17:37:27.435Z,36.50
2023-02-11T17:38:27.399Z,37.29
2023-02-11T17:39:27.366Z,43.90
2023-02-11T17:40:27.354Z,40.29
2023-02-11T17:41:27.340Z,38.20
2023-02-11T17:42:27.335Z,36.20
2023-02-11T17:43:27.334Z,40.70
2023-02-11T17:44:27.315Z,35.90
2023-02-11T17:45:27.325Z,42.70
2023-02-11T17:46:27.309Z,43.00
2023-02-11T17:47:27.283Z,87.40
2023-02-11T17:48:27.273Z,93.80
2023-02-11T17:49:27.270Z,90.19
2023-02-11T17:50:29.334Z,85.19
2023-02-11T17:51:27.250Z,60.79
2023-02-11T17:52:27.227Z,66.80
2023-02-11T17:53:27.223Z,56.00
2023-02-11T17:54:27.232Z,53.20
2023-02-11T17:55:27.204Z,44.29
2023-02-11T17:56:27.190Z,43.59
2023-02-11T17:57:27.176Z,42.29
2023-02-11T17:58:27.181Z,40.79
2023-02-11T17:59:27.159Z,46.29
2023-02-11T18:00:27.150Z,34.50
2023-02-11T18:01:27.334Z,33.90
2023-02-11T18:02:27.125Z,35.09
2023-02-11T18:03:27.114Z,37.00
2023-02-11T18:04:27.150Z,34.29
2023-02-11T18:05:27.094Z,35.00
2023-02-11T18:06:27.085Z,34.59
2023-02-11T18:07:27.072Z,33.40
2023-02-11T18:08:27.066Z,34.40
2023-02-11T18:09:27.058Z,32.79
2023-02-11T18:10:27.066Z,34.09
2023-02-11T18:11:27.037Z,35.90
2023-02-11T18:12:27.025Z,35.70
2023-02-11T18:13:27.014Z,37.09
2023-02-11T18:14:27.009Z,36.40
2023-02-11T18:15:27.001Z,36.90
2023-02-11T18:16:27.029Z,33.90
2023-02-11T18:17:26.975Z,35.79
2023-02-11T18:18:26.958Z,37.90
2023-02-11T18:19:26.955Z,120.00
2023-02-11T18:20:26.941Z,124.80
2023-02-11T18:21:26.930Z,77.19
2023-02-11T18:22:26.927Z,44.50
2023-02-11T18:23:26.935Z,42.29
2023-02-11T18:24:26.899Z,36.40
2023-02-11T18:25:26.889Z,36.29
2023-02-11T18:26:27.507Z,36.79
2023-02-11T18:27:26.867Z,35.79
2023-02-11T18:28:26.908Z,35.00
2023-02-11T18:29:26.854Z,36.40
2023-02-11T18:30:26.838Z,39.29
2023-02-11T18:31:26.844Z,39.00
2023-02-11T18:32:26.823Z,38.00
2023-02-11T18:33:26.821Z,44.59
2023-02-11T18:34:26.815Z,81.80
2023-02-11T18:35:26.799Z,79.50
2023-02-11T18:36:26.781Z,52.29
2023-02-11T18:37:26.770Z,37.59
2023-02-11T18:38:26.762Z,33.70
2023-02-11T18:39:26.763Z,35.09
2023-02-11T18:40:26.736Z,35.50
2023-02-11T18:41:26.728Z,36.50
2023-02-11T18:42:26.739Z,36.79
2023-02-11T18:43:26.713Z,41.00
2023-02-11T18:44:26.702Z,35.70
2023-02-11T18:45:26.689Z,40.29
2023-02-11T18:46:26.782Z,37.40
2023-02-11T18:47:26.669Z,35.50
2023-02-11T18:48:26.660Z,34.90
2023-02-11T18:49:26.645Z,38.29
2023-02-11T18:50:26.634Z,53.90
2023-02-11T18:51:26.639Z,61.00
2023-02-11T18:52:26.628Z,92.80
2023-02-11T18:53:26.611Z,64.09
2023-02-11T18:54:26.593Z,40.50
2023-02-11T18:55:26.588Z,41.70
2023-02-11T18:56:26.581Z,34.29
2023-02-11T18:57:26.565Z,32.00
2023-02-11T18:58:26.577Z,36.90
2023-02-11T18:59:26.548Z,57.70
2023-02-11T19:00:26.560Z,47.50
2023-02-11T19:01:26.563Z,48.29
2023-02-11T19:02:26.514Z,43.00
2023-02-11T19:03:26.509Z,40.00
2023-02-11T19:04:26.537Z,33.90
2023-02-11T19:05:26.481Z,55.00
2023-02-11T19:06:26.476Z,45.09
2023-02-11T19:07:26.464Z,37.79
2023-02-11T19:08:26.455Z,38.40
2023-02-11T19:09:26.443Z,34.40
2023-02-11T19:10:26.435Z,34.50
2023-02-11T19:11:26.420Z,34.79
2023-02-11T19:12:26.410Z,34.79
2023-02-11T19:13:26.399Z,34.00
2023-02-11T19:14:26.412Z,35.00
2023-02-11T19:15:26.380Z,34.29
2023-02-11T19:16:26.380Z,38.00
2023-02-11T19:17:26.356Z,38.70
2023-02-11T19:18:26.352Z,36.70
2023-02-11T19:19:26.337Z,77.09
2023-02-11T19:20:26.330Z,49.09
2023-02-11T19:21:26.315Z,40.59
2023-02-11T19:22:26.305Z,39.00
2023-02-11T19:23:26.299Z,40.20
2023-02-11T19:24:26.287Z,45.09
2023-02-11T19:25:26.274Z,34.40
2023-02-11T19:26:26.267Z,34.70
2023-02-11T19:27:26.254Z,30.79
2023-02-11T19:28:26.369Z,35.59
2023-02-11T19:29:26.240Z,35.20
2023-02-11T19:30:26.249Z,33.29
2023-02-11T19:31:26.303Z,36.09
2023-02-11T19:32:26.210Z,35.70
2023-02-11T19:33:26.198Z,33.59
2023-02-11T19:34:26.181Z,35.40
2023-02-11T19:35:26.174Z,33.20
2023-02-11T19:36:26.165Z,33.90
2023-02-11T19:37:26.154Z,40.50
2023-02-11T19:38:26.143Z,44.70
2023-02-11T19:39:26.137Z,38.29
2023-02-11T19:40:26.122Z,30.29
2023-02-11T19:41:26.112Z,32.50
2023-02-11T19:42:27.592Z,33.50
2023-02-11T19:43:26.094Z,30.00
2023-02-11T19:44:26.084Z,34.70
2023-02-11T19:45:26.069Z,34.29
2023-02-11T19:46:26.145Z,44.90
2023-02-11T19:47:26.051Z,65.69
2023-02-11T19:48:26.037Z,79.59
2023-02-11T19:49:26.054Z,53.79
2023-02-11T19:50:26.018Z,47.29
2023-02-11T19:51:26.017Z,40.29
2023-02-11T19:52:25.999Z,44.29
2023-02-11T19:53:25.994Z,41.90
2023-02-11T19:54:25.978Z,35.50
2023-02-11T19:55:25.971Z,29.79
2023-02-11T19:56:25.959Z,26.29
2023-02-11T19:57:25.953Z,26.50
2023-02-11T19:58:25.941Z,29.10
2023-02-11T19:59:25.930Z,31.00
2023-02-11T20:00:25.922Z,32.09
2023-02-11T20:01:26.015Z,32.40
2023-02-11T20:02:25.965Z,37.90
2023-02-11T20:03:25.888Z,39.40
2023-02-11T20:04:25.889Z,31.70
2023-02-11T20:05:25.868Z,33.70
2023-02-11T20:06:25.866Z,33.59
2023-02-11T20:07:25.853Z,30.29
2023-02-11T20:08:25.835Z,31.89
2023-02-11T20:09:25.825Z,31.10
2023-02-11T20:10:25.819Z,32.70
2023-02-11T20:11:25.810Z,33.70
2023-02-11T20:12:25.792Z,32.00
2023-02-11T20:13:25.789Z,28.00
2023-02-11T20:14:27.934Z,26.29
2023-02-11T20:15:25.765Z,27.39
2023-02-11T20:16:40.683Z,27.29
2023-02-11T20:17:26.764Z,28.60
2023-02-11T20:18:25.750Z,29.79
2023-02-11T20:19:25.723Z,28.20
2023-02-11T20:20:25.711Z,27.70
2023-02-11T20:21:25.702Z,31.79
2023-02-11T20:22:25.688Z,29.29
2023-02-11T20:23:25.682Z,27.70
2023-02-11T20:24:25.679Z,26.10
2023-02-11T20:25:25.660Z,31.79
2023-02-11T20:26:25.645Z,26.60
2023-02-11T20:27:25.641Z,27.89
2023-02-11T20:28:25.754Z,27.50
2023-02-11T20:29:25.682Z,24.29
2023-02-11T20:30:25.609Z,25.39
2023-02-11T20:31:25.731Z,24.29
2023-02-11T20:32:25.589Z,25.60
2023-02-11T20:33:25.579Z,26.60
2023-02-11T20:34:25.596Z,30.20
2023-02-11T20:35:25.556Z,31.20
2023-02-11T20:36:25.548Z,28.89
2023-02-11T20:37:25.549Z,32.50
2023-02-11T20:38:25.522Z,31.10
2023-02-11T20:39:25.514Z,32.20
2023-02-11T20:40:25.505Z,28.00
2023-02-11T20:41:25.501Z,29.79
2023-02-11T20:42:25.509Z,27.79
2023-02-11T20:43:25.472Z,26.60
2023-02-11T20:44:25.470Z,28.89
2023-02-11T20:45:25.453Z,29.00
2023-02-11T20:46:25.500Z,29.00
2023-02-11T20:47:25.434Z,25.10
2023-02-11T20:48:25.420Z,24.39
2023-02-11T20:49:25.431Z,27.50
2023-02-11T20:50:25.427Z,28.70
2023-02-11T20:51:25.394Z,37.70
2023-02-11T20:52:25.377Z,35.79
2023-02-11T20:53:25.376Z,48.79
2023-02-11T20:54:25.423Z,37.20
2023-02-11T20:55:25.366Z,33.29
2023-02-11T20:56:25.351Z,30.39
2023-02-11T20:57:25.332Z,28.79
2023-02-11T20:58:25.328Z,24.89
2023-02-11T20:59:25.321Z,27.10
2023-02-11T21:00:25.311Z,28.39
2023-02-11T21:01:25.319Z,37.00
2023-02-11T21:02:25.280Z,30.10
2023-02-11T21:03:25.326Z,27.60
2023-02-11T21:04:25.259Z,26.60
2023-02-11T21:05:25.256Z,25.10
2023-02-11T21:06:25.262Z,27.20
2023-02-11T21:07:25.223Z,27.10
2023-02-11T21:08:25.218Z,29.89
2023-02-11T21:09:25.207Z,29.29
2023-02-11T21:10:25.219Z,26.00
2023-02-11T21:11:25.190Z,24.79
2023-02-11T21:12:25.179Z,23.89
2023-02-11T21:13:25.164Z,25.20
2023-02-11T21:14:25.155Z,23.50
2023-02-11T21:15:25.168Z,23.50
2023-02-11T21:16:25.249Z,24.79
2023-02-11T21:17:25.125Z,24.79
2023-02-11T21:18:25.113Z,26.20
2023-02-11T21:19:25.171Z,24.79
2023-02-11T21:20:25.095Z,24.39
2023-02-11T21:21:25.082Z,26.60
2023-02-11T21:22:25.105Z,23.89
2023-02-11T21:23:25.066Z,25.70
2023-02-11T21:24:25.051Z,23.79
2023-02-11T21:25:25.043Z,25.29
2023-02-11T21:26:25.038Z,23.60
2023-02-11T21:27:25.026Z,24.10
2023-02-11T21:28:25.043Z,23.89
2023-02-11T21:29:25.014Z,25.00
2023-02-11T21:30:24.996Z,24.89
2023-02-11T21:31:25.134Z,23.79
2023-02-11T21:32:24.973Z,26.70
2023-02-11T21:33:24.960Z,26.00
2023-02-11T21:34:24.950Z,24.50
2023-02-11T21:35:24.943Z,26.10
2023-02-11T21:36:24.929Z,26.00
2023-02-11T21:37:24.930Z,25.20
2023-02-11T21:38:24.935Z,26.29
2023-02-11T21:39:24.904Z,26.29
2023-02-11T21:40:24.894Z,28.39
2023-02-11T21:41:25.031Z,27.50
2023-02-11T21:42:24.870Z,28.89
2023-02-11T21:43:24.855Z,31.60
2023-02-11T21:44:24.847Z,26.70
2023-02-11T21:45:24.835Z,25.50
2023-02-11T21:46:24.937Z,26.29
2023-02-11T21:47:24.820Z,28.00
2023-02-11T21:48:24.806Z,21.79
2023-02-11T21:49:24.796Z,21.10
2023-02-11T21:50:24.784Z,23.00
2023-02-11T21:51:24.772Z,24.00
2023-02-11T21:52:24.766Z,24.20
2023-02-11T21:53:24.757Z,29.20
2023-02-11T21:54:24.766Z,29.29
2023-02-11T21:55:24.734Z,28.50
2023-02-11T21:56:24.724Z,28.10
2023-02-11T21:57:24.716Z,27.20
2023-02-11T21:58:24.711Z,29.50
2023-02-11T21:59:24.693Z,30.70
2023-02-11T22:00:24.716Z,29.79
2023-02-11T22:01:24.677Z,27.20
2023-02-11T22:02:24.660Z,26.00
2023-02-11T22:03:24.648Z,22.50
2023-02-11T22:04:24.702Z,22.79
2023-02-11T22:05:24.632Z,22.10
2023-02-11T22:06:24.621Z,22.60
2023-02-11T22:07:24.611Z,21.50
2023-02-11T22:08:24.604Z,22.70
2023-02-11T22:09:24.606Z,22.89
2023-02-11T22:10:24.603Z,23.70
2023-02-11T22:11:24.572Z,22.79
2023-02-11T22:12:24.558Z,22.29
2023-02-11T22:13:24.547Z,24.00
2023-02-11T22:14:24.536Z,24.50
2023-02-11T22:15:24.528Z,26.20
2023-02-11T22:16:24.573Z,29.50
2023-02-11T22:17:24.646Z,53.50
2023-02-11T22:18:24.500Z,73.00
2023-02-11T22:19:24.490Z,48.59
2023-02-11T22:20:24.475Z,30.10
2023-02-11T22:21:24.462Z,25.50
2023-02-11T22:22:24.453Z,24.50
2023-02-11T22:23:24.441Z,26.39
2023-02-11T22:24:24.433Z,25.60
2023-02-11T22:25:24.425Z,25.39
2023-02-11T22:26:24.542Z,25.60
2023-02-11T22:27:24.398Z,24.79
2023-02-11T22:28:24.441Z,26.70
2023-02-11T22:29:24.380Z,24.50
2023-02-11T22:30:24.369Z,22.10
2023-02-11T22:31:24.559Z,21.89
2023-02-11T22:32:24.348Z,21.79
2023-02-11T22:33:24.337Z,20.39
2023-02-11T22:34:24.322Z,20.60
2023-02-11T22:35:24.308Z,20.29
2023-02-11T22:36:24.328Z,23.70
2023-02-11T22:37:24.293Z,22.00
2023-02-11T22:38:24.285Z,23.50
2023-02-11T22:39:24.272Z,22.89
2023-02-11T22:40:24.256Z,23.89
2023-02-11T22:41:24.257Z,22.39
2023-02-11T22:42:24.258Z,22.89
2023-02-11T22:43:24.231Z,22.20
2023-02-11T22:44:24.214Z,19.60
2023-02-11T22:45:24.205Z,20.29
2023-02-11T22:46:24.190Z,19.00
2023-02-11T22:47:24.180Z,19.60
2023-02-11T22:48:24.172Z,19.79
2023-02-11T22:49:24.156Z,19.89
2023-02-11T22:50:24.148Z,20.89
2023-02-11T22:51:24.139Z,22.39
2023-02-11T22:52:24.125Z,23.50
2023-02-11T22:53:24.118Z,21.00
2023-02-11T22:54:24.106Z,18.70
2023-02-11T22:55:24.105Z,20.20
2023-02-11T22:56:24.087Z,20.20
2023-02-11T22:57:24.226Z,21.89
2023-02-11T22:58:24.094Z,21.50
2023-02-11T22:59:24.056Z,19.89
2023-02-11T23:00:24.042Z,20.10
2023-02-11T23:01:24.072Z,20.20
2023-02-11T23:02:24.068Z,20.00
2023-02-11T23:03:24.011Z,20.00
2023-02-11T23:04:23.998Z,19.50
2023-02-11T23:05:23.991Z,21.60
2023-02-11T23:06:23.986Z,20.29
2023-02-11T23:07:23.970Z,23.39
2023-02-11T23:08:23.967Z,21.79
2023-02-11T23:09:23.944Z,19.50
2023-02-11T23:10:23.951Z,20.70
2023-02-11T23:11:23.925Z,21.50
2023-02-11T23:12:23.917Z,22.89
2023-02-11T23:13:23.904Z,23.60
2023-02-11T23:14:23.918Z,21.79
2023-02-11T23:15:23.883Z,21.60
2023-02-11T23:16:23.919Z,22.60
2023-02-11T23:17:23.865Z,22.20
2023-02-11T23:18:23.856Z,20.60
2023-02-11T23:19:23.861Z,22.29
2023-02-11T23:20:23.834Z,22.00
2023-02-11T23:21:23.823Z,21.50
2023-02-11T23:22:23.812Z,21.79
2023-02-11T23:23:23.799Z,21.20
2023-02-11T23:24:23.789Z,17.39
2023-02-11T23:25:23.779Z,19.70
2023-02-11T23:26:23.769Z,16.50
2023-02-11T23:33:23.691Z,19.00
2023-02-11T23:34:23.683Z,20.70
2023-02-11T23:35:23.687Z,21.79
2023-02-11T23:36:23.670Z,20.29
2023-02-11T23:37:23.656Z,27.00
2023-02-11T23:38:23.646Z,28.00
2023-02-11T23:39:23.634Z,26.60
2023-02-11T23:40:23.625Z,28.39
2023-02-11T23:41:23.614Z,27.39
2023-02-11T23:42:23.606Z,22.20
2023-02-11T23:43:24.448Z,18.29
2023-02-11T23:44:23.587Z,20.50
2023-02-11T23:45:23.574Z,18.50
2023-02-11T23:46:23.655Z,18.60
2023-02-11T23:47:23.552Z,19.39
2023-02-11T23:48:23.548Z,19.39
2023-02-11T23:49:23.530Z,18.60
2023-02-11T23:50:23.520Z,18.29
2023-02-11T23:51:23.544Z,19.00
2023-02-11T23:52:23.505Z,19.00
2023-02-11T23:53:23.488Z,18.60
2023-02-11T23:55:23.467Z,17.70
2023-02-11T23:56:23.468Z,19.70
2023-02-11T23:57:23.449Z,22.00
2023-02-11T23:58:23.441Z,22.70
2023-02-11T23:59:23.421Z,22.20
